UAL202 PTPN-PGUM
Flight info
| Callsign | UAL202 |
|---|---|
| Flight time | 2h 9m |
| Altitude | 38000 |
| Route | ADUFO A222 CLANS |
| Aircraft | B738/M-SDE2E3FGHIRWXY/LB1 |
Departure
| Time | 2026-04-16 13:40 |
|---|---|
| Airport | Pohnpei International Airport (PTPN) |
Arrival
| Time | 2026-04-16 15:49 |
|---|---|
| Airport | Antonio B. Won Pat International Airport (PGUM) |
| Time | Latitude | Longitude | Altitude | Speed | Heading |
|---|---|---|---|---|---|
| 2026-04-16 13:00 | 6.98195 | 158.20331 | 14 ft | 0 kts | 178° |
| 2026-04-16 13:36 | 6.98192 | 158.20331 | 17 ft | 1 kts | 187° |
| 2026-04-16 13:36 | 6.98187 | 158.20322 | 18 ft | 1 kts | 264° |
| 2026-04-16 13:37 | 6.98196 | 158.20321 | 19 ft | 2 kts | 18° |
| 2026-04-16 13:37 | 6.98241 | 158.20333 | 17 ft | 11 kts | 22° |
| 2026-04-16 13:37 | 6.98325 | 158.20358 | 17 ft | 15 kts | 0° |
| 2026-04-16 13:37 | 6.98440 | 158.20359 | 18 ft | 18 kts | 0° |
| 2026-04-16 13:38 | 6.98514 | 158.20309 | 16 ft | 15 kts | 273° |
| 2026-04-16 13:38 | 6.98507 | 158.20192 | 15 ft | 18 kts | 252° |
| 2026-04-16 13:38 | 6.98470 | 158.20113 | 17 ft | 11 kts | 258° |
| 2026-04-16 13:38 | 6.98512 | 158.20106 | 17 ft | 12 kts | 70° |
| 2026-04-16 13:39 | 6.98515 | 158.20146 | 16 ft | 0 kts | 90° |
| 2026-04-16 13:39 | 6.98514 | 158.20220 | 16 ft | 42 kts | 90° |
| 2026-04-16 13:39 | 6.98512 | 158.20794 | 16 ft | 120 kts | 90° |
| 2026-04-16 13:39 | 6.98509 | 158.21838 | 177 ft | 167 kts | 90° |
| 2026-04-16 13:40 | 6.98527 | 158.23013 | 1107 ft | 164 kts | 88° |
| 2026-04-16 13:40 | 6.98906 | 158.24129 | 1905 ft | 179 kts | 55° |
| 2026-04-16 13:40 | 6.99971 | 158.24943 | 2350 ft | 212 kts | 21° |
| 2026-04-16 13:40 | 7.01534 | 158.25073 | 2599 ft | 242 kts | 348° |
| 2026-04-16 13:41 | 7.03070 | 158.24293 | 2990 ft | 262 kts | 318° |
| 2026-04-16 13:41 | 7.04135 | 158.22740 | 3515 ft | 276 kts | 296° |
| 2026-04-16 13:41 | 7.04955 | 158.20988 | 4476 ft | 274 kts | 294° |
| 2026-04-16 13:41 | 7.05719 | 158.19248 | 5532 ft | 272 kts | 294° |
| 2026-04-16 13:42 | 7.06485 | 158.17489 | 6376 ft | 276 kts | 294° |
| 2026-04-16 13:42 | 7.07259 | 158.15716 | 7267 ft | 276 kts | 294° |
| 2026-04-16 13:42 | 7.08031 | 158.13961 | 8224 ft | 274 kts | 294° |
| 2026-04-16 13:42 | 7.08814 | 158.12191 | 9017 ft | 280 kts | 295° |
| 2026-04-16 13:43 | 7.09615 | 158.10386 | 9830 ft | 284 kts | 295° |
| 2026-04-16 13:43 | 7.10432 | 158.08553 | 10423 ft | 296 kts | 295° |
| 2026-04-16 13:43 | 7.11313 | 158.06579 | 10603 ft | 320 kts | 295° |
| 2026-04-16 13:43 | 7.12242 | 158.04500 | 11137 ft | 330 kts | 295° |
| 2026-04-16 13:44 | 7.13191 | 158.02377 | 11818 ft | 335 kts | 295° |
| 2026-04-16 13:44 | 7.14151 | 158.00231 | 12528 ft | 339 kts | 295° |
| 2026-04-16 13:44 | 7.15126 | 157.98050 | 13210 ft | 344 kts | 295° |
| 2026-04-16 13:44 | 7.16115 | 157.95839 | 13864 ft | 349 kts | 295° |
| 2026-04-16 13:45 | 7.17116 | 157.93600 | 14473 ft | 353 kts | 296° |
| 2026-04-16 13:45 | 7.18131 | 157.91331 | 15038 ft | 358 kts | 296° |
| 2026-04-16 13:45 | 7.19161 | 157.89029 | 15615 ft | 363 kts | 296° |
| 2026-04-16 13:45 | 7.20203 | 157.86698 | 16202 ft | 367 kts | 296° |
| 2026-04-16 13:46 | 7.21258 | 157.84337 | 16779 ft | 372 kts | 296° |
| 2026-04-16 13:46 | 7.22313 | 157.81976 | 17326 ft | 377 kts | 297° |
| 2026-04-16 13:46 | 7.23410 | 157.79522 | 17884 ft | 382 kts | 297° |
| 2026-04-16 13:46 | 7.24520 | 157.77080 | 18399 ft | 385 kts | 300° |
| 2026-04-16 13:47 | 7.25827 | 157.74715 | 18890 ft | 387 kts | 303° |
| 2026-04-16 13:47 | 7.27233 | 157.72396 | 19408 ft | 389 kts | 304° |
| 2026-04-16 13:47 | 7.28658 | 157.70109 | 19907 ft | 392 kts | 305° |
| 2026-04-16 13:47 | 7.30115 | 157.67777 | 20398 ft | 395 kts | 304° |
| 2026-04-16 13:48 | 7.31580 | 157.65421 | 20880 ft | 399 kts | 304° |
| 2026-04-16 13:48 | 7.33049 | 157.63040 | 21363 ft | 402 kts | 304° |
| 2026-04-16 13:48 | 7.34523 | 157.60637 | 21845 ft | 405 kts | 304° |
| 2026-04-16 13:48 | 7.36003 | 157.58213 | 22312 ft | 408 kts | 304° |
| 2026-04-16 13:49 | 7.37493 | 157.55767 | 22765 ft | 411 kts | 303° |
| 2026-04-16 13:49 | 7.38989 | 157.53304 | 23231 ft | 414 kts | 303° |
| 2026-04-16 13:49 | 7.40495 | 157.50824 | 23662 ft | 416 kts | 303° |
| 2026-04-16 13:49 | 7.42012 | 157.48323 | 24023 ft | 419 kts | 303° |
| 2026-04-16 13:50 | 7.43538 | 157.45808 | 24374 ft | 423 kts | 303° |
| 2026-04-16 13:50 | 7.45077 | 157.43272 | 24718 ft | 426 kts | 303° |
| 2026-04-16 13:50 | 7.46625 | 157.40720 | 25072 ft | 429 kts | 303° |
| 2026-04-16 13:50 | 7.48186 | 157.38146 | 25414 ft | 432 kts | 303° |
| 2026-04-16 13:51 | 7.49757 | 157.35556 | 25762 ft | 435 kts | 303° |
| 2026-04-16 13:51 | 7.51337 | 157.32950 | 26099 ft | 437 kts | 303° |
| 2026-04-16 13:51 | 7.52928 | 157.30325 | 26434 ft | 440 kts | 303° |
| 2026-04-16 13:51 | 7.54530 | 157.27681 | 26765 ft | 443 kts | 303° |
| 2026-04-16 13:52 | 7.56143 | 157.25021 | 27091 ft | 446 kts | 303° |
| 2026-04-16 13:52 | 7.57765 | 157.22343 | 27409 ft | 449 kts | 303° |
| 2026-04-16 13:52 | 7.59396 | 157.19651 | 27743 ft | 452 kts | 303° |
| 2026-04-16 13:52 | 7.61037 | 157.16942 | 28066 ft | 454 kts | 303° |
| 2026-04-16 13:53 | 7.62688 | 157.14216 | 28377 ft | 457 kts | 303° |
| 2026-04-16 13:53 | 7.64346 | 157.11477 | 28670 ft | 460 kts | 303° |
| 2026-04-16 13:53 | 7.66018 | 157.08716 | 28964 ft | 462 kts | 303° |
| 2026-04-16 13:53 | 7.67698 | 157.05941 | 29243 ft | 465 kts | 303° |
| 2026-04-16 13:54 | 7.69384 | 157.03154 | 29532 ft | 468 kts | 302° |
| 2026-04-16 13:54 | 7.71084 | 157.00344 | 29841 ft | 469 kts | 302° |
| 2026-04-16 13:54 | 7.72787 | 156.97529 | 30098 ft | 472 kts | 302° |
| 2026-04-16 13:54 | 7.74500 | 156.94697 | 30315 ft | 474 kts | 302° |
| 2026-04-16 13:55 | 7.76219 | 156.91854 | 30558 ft | 476 kts | 302° |
| 2026-04-16 13:55 | 7.77945 | 156.88999 | 30799 ft | 478 kts | 302° |
| 2026-04-16 13:55 | 7.79676 | 156.86135 | 31039 ft | 480 kts | 302° |
| 2026-04-16 13:55 | 7.81417 | 156.83255 | 31267 ft | 481 kts | 302° |
| 2026-04-16 13:56 | 7.83141 | 156.80402 | 31481 ft | 484 kts | 302° |
| 2026-04-16 13:56 | 7.84892 | 156.77503 | 31734 ft | 484 kts | 302° |
| 2026-04-16 13:56 | 7.86644 | 156.74603 | 32056 ft | 484 kts | 302° |
| 2026-04-16 13:56 | 7.88390 | 156.71711 | 32399 ft | 482 kts | 302° |
| 2026-04-16 13:57 | 7.90135 | 156.68820 | 32711 ft | 482 kts | 302° |
| 2026-04-16 13:57 | 7.91878 | 156.65932 | 32993 ft | 483 kts | 302° |
| 2026-04-16 13:57 | 7.93624 | 156.63039 | 33299 ft | 482 kts | 302° |
| 2026-04-16 13:58 | 7.97110 | 156.57261 | 33924 ft | 482 kts | 302° |
| 2026-04-16 13:58 | 7.98851 | 156.54375 | 34207 ft | 481 kts | 302° |
| 2026-04-16 13:58 | 8.00586 | 156.51498 | 34519 ft | 480 kts | 302° |
| 2026-04-16 13:58 | 8.02316 | 156.48630 | 34848 ft | 478 kts | 302° |
| 2026-04-16 13:59 | 8.04040 | 156.45769 | 35136 ft | 477 kts | 302° |
| 2026-04-16 13:59 | 8.05761 | 156.42914 | 35382 ft | 477 kts | 302° |
| 2026-04-16 13:59 | 8.07484 | 156.40055 | 35629 ft | 477 kts | 302° |
| 2026-04-16 13:59 | 8.09206 | 156.37198 | 35905 ft | 476 kts | 302° |
| 2026-04-16 14:00 | 8.10920 | 156.34352 | 36188 ft | 474 kts | 302° |
| 2026-04-16 14:00 | 8.12633 | 156.31508 | 36464 ft | 474 kts | 303° |
| 2026-04-16 14:00 | 8.14342 | 156.28668 | 36687 ft | 474 kts | 303° |
| 2026-04-16 14:00 | 8.16054 | 156.25825 | 36917 ft | 474 kts | 303° |
| 2026-04-16 14:01 | 8.17764 | 156.22983 | 37178 ft | 473 kts | 303° |
| 2026-04-16 14:01 | 8.19467 | 156.20152 | 37447 ft | 472 kts | 303° |
| 2026-04-16 14:01 | 8.21168 | 156.17324 | 37681 ft | 471 kts | 303° |
| 2026-04-16 14:01 | 8.22294 | 156.15453 | 37832 ft | 471 kts | 303° |
| 2026-04-16 14:02 | 8.26291 | 156.08807 | 37902 ft | 474 kts | 303° |
| 2026-04-16 14:02 | 8.29697 | 156.03140 | 37896 ft | 470 kts | 303° |
| 2026-04-16 14:03 | 8.33078 | 155.97511 | 37902 ft | 467 kts | 303° |
| 2026-04-16 14:03 | 8.36436 | 155.91921 | 37901 ft | 465 kts | 303° |
| 2026-04-16 14:04 | 8.39783 | 155.86345 | 37906 ft | 464 kts | 303° |
| 2026-04-16 14:04 | 8.43127 | 155.80773 | 37902 ft | 464 kts | 303° |
| 2026-04-16 14:05 | 8.46474 | 155.75195 | 37900 ft | 465 kts | 303° |
| 2026-04-16 14:05 | 8.49815 | 155.69623 | 37907 ft | 468 kts | 303° |
| 2026-04-16 14:06 | 8.53211 | 155.63957 | 37905 ft | 470 kts | 303° |
| 2026-04-16 14:06 | 8.56603 | 155.58295 | 37902 ft | 472 kts | 303° |
| 2026-04-16 14:07 | 8.60009 | 155.52607 | 37901 ft | 474 kts | 303° |
| 2026-04-16 14:07 | 8.63401 | 155.46940 | 37901 ft | 475 kts | 303° |
| 2026-04-16 14:08 | 8.66819 | 155.41227 | 37892 ft | 475 kts | 303° |
| 2026-04-16 14:08 | 8.70236 | 155.35513 | 37892 ft | 474 kts | 303° |
| 2026-04-16 14:09 | 8.73643 | 155.29813 | 37896 ft | 473 kts | 303° |
| 2026-04-16 14:09 | 8.77039 | 155.24131 | 37890 ft | 472 kts | 303° |
| 2026-04-16 14:10 | 8.80425 | 155.18462 | 37897 ft | 470 kts | 303° |
| 2026-04-16 14:10 | 8.83252 | 155.13726 | 37896 ft | 469 kts | 303° |
| 2026-04-16 14:11 | 8.86618 | 155.08087 | 37899 ft | 468 kts | 303° |
| 2026-04-16 14:11 | 8.89976 | 155.02458 | 37899 ft | 467 kts | 303° |
| 2026-04-16 14:12 | 8.93325 | 154.96842 | 37893 ft | 466 kts | 302° |
| 2026-04-16 14:12 | 8.96672 | 154.91227 | 37892 ft | 466 kts | 302° |
| 2026-04-16 14:13 | 9.00015 | 154.85616 | 37895 ft | 466 kts | 302° |
| 2026-04-16 14:13 | 9.03355 | 154.80007 | 37898 ft | 466 kts | 302° |
| 2026-04-16 14:14 | 9.06697 | 154.74392 | 37901 ft | 466 kts | 302° |
| 2026-04-16 14:14 | 9.10042 | 154.68771 | 37898 ft | 466 kts | 302° |
| 2026-04-16 14:15 | 9.13368 | 154.63178 | 37911 ft | 467 kts | 302° |
| 2026-04-16 14:15 | 9.16716 | 154.57547 | 37895 ft | 467 kts | 302° |
| 2026-04-16 14:16 | 9.20064 | 154.51912 | 37894 ft | 468 kts | 302° |
| 2026-04-16 14:16 | 9.23413 | 154.46272 | 37907 ft | 467 kts | 302° |
| 2026-04-16 14:17 | 9.26764 | 154.40626 | 37892 ft | 467 kts | 302° |
| 2026-04-16 14:17 | 9.30108 | 154.34992 | 37891 ft | 467 kts | 302° |
| 2026-04-16 14:18 | 9.33444 | 154.29365 | 37890 ft | 466 kts | 302° |
| 2026-04-16 14:18 | 9.36773 | 154.23749 | 37896 ft | 465 kts | 302° |
| 2026-04-16 14:19 | 9.40088 | 154.18130 | 37894 ft | 464 kts | 300° |
| 2026-04-16 14:19 | 9.42901 | 154.12250 | 37888 ft | 464 kts | 295° |
| 2026-04-16 14:20 | 9.45501 | 154.06272 | 37903 ft | 463 kts | 294° |
| 2026-04-16 14:20 | 9.48113 | 154.00304 | 37893 ft | 463 kts | 295° |
| 2026-04-16 14:21 | 9.50760 | 153.94359 | 37896 ft | 463 kts | 295° |
| 2026-04-16 14:21 | 9.53426 | 153.88415 | 37908 ft | 463 kts | 295° |
| 2026-04-16 14:22 | 9.56097 | 153.82467 | 37894 ft | 464 kts | 295° |
| 2026-04-16 14:22 | 9.58767 | 153.76515 | 37893 ft | 464 kts | 295° |
| 2026-04-16 14:23 | 9.61439 | 153.70551 | 37888 ft | 465 kts | 295° |
| 2026-04-16 14:23 | 9.64116 | 153.64575 | 37897 ft | 466 kts | 295° |
| 2026-04-16 14:24 | 9.66779 | 153.58623 | 37892 ft | 467 kts | 295° |
| 2026-04-16 14:24 | 9.69483 | 153.52578 | 37894 ft | 468 kts | 295° |
| 2026-04-16 14:25 | 9.72174 | 153.46561 | 37888 ft | 469 kts | 294° |
| 2026-04-16 14:25 | 9.74848 | 153.40576 | 37886 ft | 470 kts | 295° |
| 2026-04-16 14:26 | 9.77545 | 153.34537 | 37891 ft | 471 kts | 295° |
| 2026-04-16 14:26 | 9.80245 | 153.28487 | 37893 ft | 471 kts | 295° |
| 2026-04-16 14:27 | 9.82947 | 153.22430 | 37890 ft | 472 kts | 295° |
| 2026-04-16 14:27 | 9.85652 | 153.16363 | 37886 ft | 472 kts | 295° |
| 2026-04-16 14:28 | 9.88358 | 153.10290 | 37886 ft | 472 kts | 295° |
| 2026-04-16 14:28 | 9.91062 | 153.04218 | 37885 ft | 472 kts | 295° |
| 2026-04-16 14:29 | 9.93766 | 152.98144 | 37884 ft | 472 kts | 294° |
| 2026-04-16 14:29 | 9.96466 | 152.92073 | 37884 ft | 472 kts | 294° |
| 2026-04-16 14:30 | 9.99164 | 152.86005 | 37886 ft | 472 kts | 294° |
| 2026-04-16 14:30 | 10.01858 | 152.79940 | 37874 ft | 472 kts | 295° |
| 2026-04-16 14:31 | 10.04551 | 152.73877 | 37887 ft | 472 kts | 294° |
| 2026-04-16 14:31 | 10.07245 | 152.67807 | 37885 ft | 472 kts | 294° |
| 2026-04-16 14:32 | 10.09940 | 152.61732 | 37876 ft | 472 kts | 294° |
| 2026-04-16 14:32 | 10.12634 | 152.55653 | 37882 ft | 472 kts | 294° |
| 2026-04-16 14:33 | 10.15330 | 152.49568 | 37877 ft | 473 kts | 294° |
| 2026-04-16 14:33 | 10.18030 | 152.43471 | 37877 ft | 474 kts | 294° |
| 2026-04-16 14:34 | 10.20731 | 152.37366 | 37875 ft | 474 kts | 294° |
| 2026-04-16 14:34 | 10.23417 | 152.31293 | 37876 ft | 475 kts | 294° |
| 2026-04-16 14:35 | 10.26122 | 152.25174 | 37876 ft | 475 kts | 294° |
| 2026-04-16 14:35 | 10.28829 | 152.19045 | 37875 ft | 476 kts | 294° |
| 2026-04-16 14:36 | 10.31535 | 152.12916 | 37875 ft | 476 kts | 294° |
| 2026-04-16 14:36 | 10.34242 | 152.06781 | 37874 ft | 476 kts | 294° |
| 2026-04-16 14:37 | 10.36947 | 152.00646 | 37874 ft | 476 kts | 294° |
| 2026-04-16 14:37 | 10.39648 | 151.94515 | 37873 ft | 475 kts | 294° |
| 2026-04-16 14:38 | 10.42348 | 151.88386 | 37872 ft | 475 kts | 294° |
| 2026-04-16 14:38 | 10.45046 | 151.82255 | 37874 ft | 475 kts | 294° |
| 2026-04-16 14:39 | 10.47741 | 151.76130 | 37874 ft | 475 kts | 294° |
| 2026-04-16 14:39 | 10.50431 | 151.70010 | 37875 ft | 474 kts | 294° |
| 2026-04-16 14:40 | 10.53120 | 151.63889 | 37867 ft | 474 kts | 294° |
| 2026-04-16 14:40 | 10.55806 | 151.57771 | 37867 ft | 474 kts | 294° |
| 2026-04-16 14:41 | 10.58490 | 151.51656 | 37869 ft | 474 kts | 294° |
| 2026-04-16 14:41 | 10.61155 | 151.45578 | 37870 ft | 474 kts | 294° |
| 2026-04-16 14:42 | 10.63834 | 151.39464 | 37873 ft | 474 kts | 294° |
| 2026-04-16 14:42 | 10.66515 | 151.33344 | 37865 ft | 474 kts | 294° |
| 2026-04-16 14:43 | 10.69192 | 151.27229 | 37864 ft | 473 kts | 294° |
| 2026-04-16 14:43 | 10.71867 | 151.21114 | 37863 ft | 473 kts | 294° |
| 2026-04-16 14:44 | 10.74540 | 151.14998 | 37859 ft | 473 kts | 294° |
| 2026-04-16 14:44 | 10.77212 | 151.08883 | 37861 ft | 473 kts | 294° |
| 2026-04-16 14:45 | 10.79884 | 151.02765 | 37861 ft | 473 kts | 294° |
| 2026-04-16 14:45 | 10.82552 | 150.96650 | 37861 ft | 473 kts | 294° |
| 2026-04-16 14:46 | 10.85219 | 150.90533 | 37859 ft | 473 kts | 294° |
| 2026-04-16 14:46 | 10.87887 | 150.84412 | 37853 ft | 473 kts | 294° |
| 2026-04-16 14:47 | 10.90550 | 150.78296 | 37855 ft | 473 kts | 294° |
| 2026-04-16 14:47 | 10.93214 | 150.72176 | 37849 ft | 473 kts | 294° |
| 2026-04-16 14:48 | 10.95876 | 150.66057 | 37851 ft | 473 kts | 294° |
| 2026-04-16 14:48 | 10.98536 | 150.59939 | 37848 ft | 473 kts | 294° |
| 2026-04-16 14:49 | 11.01193 | 150.53820 | 37849 ft | 473 kts | 294° |
| 2026-04-16 14:49 | 11.03834 | 150.47737 | 37844 ft | 473 kts | 294° |
| 2026-04-16 14:50 | 11.06489 | 150.41619 | 37843 ft | 473 kts | 294° |
| 2026-04-16 14:50 | 11.09144 | 150.35494 | 37841 ft | 473 kts | 294° |
| 2026-04-16 14:51 | 11.11797 | 150.29373 | 37840 ft | 473 kts | 294° |
| 2026-04-16 14:51 | 11.14448 | 150.23250 | 37838 ft | 472 kts | 294° |
| 2026-04-16 14:53 | 11.25014 | 149.98810 | 37830 ft | 470 kts | 294° |
| 2026-04-16 14:54 | 11.27648 | 149.92709 | 37832 ft | 470 kts | 294° |
| 2026-04-16 14:54 | 11.30274 | 149.86619 | 37829 ft | 470 kts | 294° |
| 2026-04-16 14:55 | 11.32902 | 149.80523 | 37824 ft | 469 kts | 294° |
| 2026-04-16 14:55 | 11.35526 | 149.74430 | 37823 ft | 469 kts | 294° |
| 2026-04-16 14:56 | 11.38146 | 149.68345 | 37825 ft | 469 kts | 294° |
| 2026-04-16 14:56 | 11.40768 | 149.62249 | 37824 ft | 469 kts | 294° |
| 2026-04-16 14:57 | 11.43387 | 149.56158 | 37823 ft | 469 kts | 294° |
| 2026-04-16 14:57 | 11.46006 | 149.50061 | 37822 ft | 470 kts | 294° |
| 2026-04-16 14:58 | 11.49491 | 149.41943 | 37822 ft | 470 kts | 294° |
| 2026-04-16 14:59 | 11.52537 | 149.34842 | 37823 ft | 470 kts | 294° |
| 2026-04-16 14:59 | 11.54732 | 149.29722 | 37816 ft | 470 kts | 293° |
| 2026-04-16 15:00 | 11.57350 | 149.23609 | 37822 ft | 471 kts | 293° |
| 2026-04-16 15:00 | 11.59969 | 149.17490 | 37822 ft | 471 kts | 293° |
| 2026-04-16 15:01 | 11.62571 | 149.11407 | 37821 ft | 471 kts | 293° |
| 2026-04-16 15:01 | 11.65206 | 149.05243 | 37821 ft | 471 kts | 293° |
| 2026-04-16 15:02 | 11.67824 | 148.99114 | 37818 ft | 471 kts | 293° |
| 2026-04-16 15:02 | 11.70423 | 148.93026 | 37814 ft | 471 kts | 293° |
| 2026-04-16 15:03 | 11.73036 | 148.86900 | 37815 ft | 471 kts | 293° |
| 2026-04-16 15:03 | 11.75650 | 148.80767 | 37800 ft | 471 kts | 293° |
| 2026-04-16 15:04 | 11.78266 | 148.74630 | 37808 ft | 471 kts | 293° |
| 2026-04-16 15:04 | 11.80882 | 148.68493 | 37810 ft | 471 kts | 293° |
| 2026-04-16 15:05 | 11.83495 | 148.62356 | 37798 ft | 472 kts | 293° |
| 2026-04-16 15:05 | 11.86108 | 148.56216 | 37799 ft | 472 kts | 293° |
| 2026-04-16 15:06 | 11.88720 | 148.50069 | 37805 ft | 472 kts | 293° |
| 2026-04-16 15:06 | 11.91328 | 148.43930 | 37798 ft | 472 kts | 292° |
| 2026-04-16 15:07 | 11.93937 | 148.37784 | 37794 ft | 472 kts | 292° |
| 2026-04-16 15:07 | 11.96542 | 148.31644 | 37794 ft | 471 kts | 293° |
| 2026-04-16 15:08 | 11.99144 | 148.25505 | 37797 ft | 471 kts | 292° |
| 2026-04-16 15:08 | 12.01743 | 148.19370 | 37792 ft | 471 kts | 292° |
| 2026-04-16 15:09 | 12.04340 | 148.13235 | 37788 ft | 470 kts | 292° |
| 2026-04-16 15:09 | 12.06932 | 148.07107 | 37785 ft | 470 kts | 292° |
| 2026-04-16 15:10 | 12.09520 | 148.00983 | 37782 ft | 469 kts | 292° |
| 2026-04-16 15:10 | 12.12104 | 147.94866 | 37794 ft | 469 kts | 292° |
| 2026-04-16 15:11 | 12.14685 | 147.88753 | 37797 ft | 468 kts | 292° |
| 2026-04-16 15:11 | 12.17242 | 147.82690 | 37783 ft | 467 kts | 291° |
| 2026-04-16 15:12 | 12.19814 | 147.76588 | 37786 ft | 466 kts | 292° |
| 2026-04-16 15:12 | 12.22379 | 147.70499 | 37773 ft | 466 kts | 292° |
| 2026-04-16 15:13 | 12.24938 | 147.64417 | 37788 ft | 465 kts | 292° |
| 2026-04-16 15:13 | 12.27496 | 147.58335 | 37785 ft | 465 kts | 292° |
| 2026-04-16 15:14 | 12.30050 | 147.52256 | 37791 ft | 465 kts | 292° |
| 2026-04-16 15:14 | 12.32609 | 147.46167 | 37778 ft | 465 kts | 292° |
| 2026-04-16 15:15 | 12.35163 | 147.40083 | 37770 ft | 466 kts | 292° |
| 2026-04-16 15:15 | 12.37713 | 147.33997 | 37783 ft | 465 kts | 291° |
| 2026-04-16 15:16 | 12.40259 | 147.27916 | 37520 ft | 467 kts | 291° |
| 2026-04-16 15:16 | 12.41538 | 147.24859 | 37116 ft | 465 kts | 290° |
| 2026-04-16 15:16 | 12.42803 | 147.21842 | 36718 ft | 460 kts | 290° |
| 2026-04-16 15:16 | 12.44060 | 147.18848 | 36338 ft | 456 kts | 290° |
| 2026-04-16 15:17 | 12.45302 | 147.15885 | 35953 ft | 451 kts | 290° |
| 2026-04-16 15:17 | 12.46532 | 147.12944 | 35578 ft | 447 kts | 290° |
| 2026-04-16 15:17 | 12.47749 | 147.10027 | 35187 ft | 444 kts | 290° |
| 2026-04-16 15:17 | 12.48959 | 147.07129 | 34810 ft | 441 kts | 289° |
| 2026-04-16 15:18 | 12.50158 | 147.04256 | 34422 ft | 438 kts | 289° |
| 2026-04-16 15:18 | 12.51351 | 147.01401 | 34045 ft | 435 kts | 289° |
| 2026-04-16 15:18 | 12.52535 | 146.98565 | 33691 ft | 431 kts | 289° |
| 2026-04-16 15:18 | 12.53703 | 146.95769 | 33447 ft | 424 kts | 289° |
| 2026-04-16 15:19 | 12.54837 | 146.93053 | 33185 ft | 418 kts | 289° |
| 2026-04-16 15:19 | 12.55969 | 146.90338 | 32928 ft | 411 kts | 289° |
| 2026-04-16 15:19 | 12.57082 | 146.87667 | 32667 ft | 405 kts | 289° |
| 2026-04-16 15:19 | 12.58179 | 146.85031 | 32375 ft | 400 kts | 289° |
| 2026-04-16 15:20 | 12.59267 | 146.82415 | 32017 ft | 398 kts | 289° |
| 2026-04-16 15:20 | 12.60346 | 146.79817 | 31665 ft | 395 kts | 289° |
| 2026-04-16 15:20 | 12.61419 | 146.77236 | 31315 ft | 393 kts | 289° |
| 2026-04-16 15:20 | 12.62484 | 146.74673 | 30973 ft | 391 kts | 289° |
| 2026-04-16 15:21 | 12.63545 | 146.72119 | 30625 ft | 389 kts | 289° |
| 2026-04-16 15:21 | 12.64600 | 146.69579 | 30274 ft | 387 kts | 289° |
| 2026-04-16 15:21 | 12.65651 | 146.67046 | 29926 ft | 385 kts | 289° |
| 2026-04-16 15:21 | 12.66696 | 146.64529 | 29535 ft | 383 kts | 289° |
| 2026-04-16 15:22 | 12.67735 | 146.62027 | 29135 ft | 381 kts | 289° |
| 2026-04-16 15:22 | 12.68765 | 146.59545 | 28754 ft | 378 kts | 289° |
| 2026-04-16 15:22 | 12.69789 | 146.57077 | 28381 ft | 375 kts | 289° |
| 2026-04-16 15:22 | 12.70804 | 146.54628 | 28018 ft | 372 kts | 289° |
| 2026-04-16 15:23 | 12.71812 | 146.52197 | 27659 ft | 369 kts | 289° |
| 2026-04-16 15:23 | 12.72812 | 146.49783 | 27305 ft | 367 kts | 289° |
| 2026-04-16 15:23 | 12.73806 | 146.47385 | 26952 ft | 364 kts | 289° |
| 2026-04-16 15:23 | 12.74792 | 146.45002 | 26602 ft | 362 kts | 289° |
| 2026-04-16 15:24 | 12.75772 | 146.42636 | 26261 ft | 360 kts | 289° |
| 2026-04-16 15:24 | 12.76747 | 146.40278 | 25906 ft | 358 kts | 289° |
| 2026-04-16 15:24 | 12.77716 | 146.37935 | 25559 ft | 356 kts | 289° |
| 2026-04-16 15:24 | 12.78680 | 146.35607 | 25220 ft | 355 kts | 289° |
| 2026-04-16 15:25 | 12.79641 | 146.33284 | 24875 ft | 353 kts | 289° |
| 2026-04-16 15:25 | 12.80621 | 146.30974 | 24522 ft | 353 kts | 293° |
| 2026-04-16 15:25 | 12.81808 | 146.28777 | 24311 ft | 351 kts | 297° |
| 2026-04-16 15:25 | 12.83066 | 146.26639 | 24084 ft | 349 kts | 297° |
| 2026-04-16 15:26 | 12.84311 | 146.24563 | 23833 ft | 345 kts | 297° |
| 2026-04-16 15:26 | 12.85581 | 146.22443 | 23516 ft | 344 kts | 297° |
| 2026-04-16 15:26 | 12.86812 | 146.20377 | 23152 ft | 344 kts | 297° |
| 2026-04-16 15:26 | 12.88065 | 146.18261 | 22775 ft | 342 kts | 297° |
| 2026-04-16 15:27 | 12.89278 | 146.16205 | 22428 ft | 341 kts | 297° |
| 2026-04-16 15:27 | 12.90499 | 146.14128 | 22077 ft | 339 kts | 296° |
| 2026-04-16 15:27 | 12.91710 | 146.12064 | 21734 ft | 337 kts | 297° |
| 2026-04-16 15:27 | 12.92915 | 146.10007 | 21398 ft | 336 kts | 297° |
| 2026-04-16 15:28 | 12.94114 | 146.07959 | 21064 ft | 334 kts | 296° |
| 2026-04-16 15:28 | 12.95307 | 146.05920 | 20734 ft | 333 kts | 297° |
| 2026-04-16 15:28 | 12.96494 | 146.03891 | 20398 ft | 331 kts | 297° |
| 2026-04-16 15:28 | 12.97675 | 146.01871 | 20066 ft | 330 kts | 297° |
| 2026-04-16 15:29 | 12.98853 | 145.99854 | 19740 ft | 329 kts | 297° |
| 2026-04-16 15:29 | 13.00027 | 145.97845 | 19414 ft | 328 kts | 296° |
| 2026-04-16 15:29 | 13.01197 | 145.95841 | 19086 ft | 327 kts | 296° |
| 2026-04-16 15:29 | 13.02364 | 145.93843 | 18754 ft | 327 kts | 296° |
| 2026-04-16 15:30 | 13.03530 | 145.91845 | 18418 ft | 326 kts | 296° |
| 2026-04-16 15:30 | 13.04694 | 145.89850 | 18083 ft | 326 kts | 296° |
| 2026-04-16 15:30 | 13.05856 | 145.87859 | 17728 ft | 325 kts | 296° |
| 2026-04-16 15:30 | 13.07015 | 145.85873 | 17375 ft | 323 kts | 296° |
| 2026-04-16 15:31 | 13.08162 | 145.83907 | 17087 ft | 320 kts | 296° |
| 2026-04-16 15:31 | 13.09302 | 145.81952 | 16727 ft | 318 kts | 296° |
| 2026-04-16 15:31 | 13.10425 | 145.80029 | 16595 ft | 310 kts | 296° |
| 2026-04-16 15:31 | 13.11526 | 145.78143 | 16340 ft | 306 kts | 297° |
| 2026-04-16 15:32 | 13.12614 | 145.76276 | 16040 ft | 304 kts | 296° |
| 2026-04-16 15:32 | 13.13693 | 145.74423 | 15742 ft | 302 kts | 296° |
| 2026-04-16 15:32 | 13.14767 | 145.72578 | 15429 ft | 300 kts | 297° |
| 2026-04-16 15:32 | 13.15834 | 145.70744 | 15127 ft | 299 kts | 297° |
| 2026-04-16 15:33 | 13.16897 | 145.68918 | 14827 ft | 297 kts | 296° |
| 2026-04-16 15:33 | 13.17954 | 145.67102 | 14522 ft | 296 kts | 297° |
| 2026-04-16 15:33 | 13.19006 | 145.65293 | 14220 ft | 294 kts | 297° |
| 2026-04-16 15:33 | 13.20053 | 145.63495 | 13929 ft | 293 kts | 297° |
| 2026-04-16 15:34 | 13.21095 | 145.61704 | 13632 ft | 292 kts | 297° |
| 2026-04-16 15:34 | 13.22133 | 145.59918 | 13304 ft | 291 kts | 297° |
| 2026-04-16 15:34 | 13.23167 | 145.58141 | 12974 ft | 289 kts | 297° |
| 2026-04-16 15:34 | 13.24194 | 145.56375 | 12659 ft | 287 kts | 296° |
| 2026-04-16 15:35 | 13.25214 | 145.54621 | 12351 ft | 285 kts | 296° |
| 2026-04-16 15:35 | 13.26228 | 145.52877 | 12051 ft | 283 kts | 296° |
| 2026-04-16 15:35 | 13.27232 | 145.51149 | 11759 ft | 281 kts | 296° |
| 2026-04-16 15:35 | 13.28232 | 145.49428 | 11466 ft | 280 kts | 296° |
| 2026-04-16 15:36 | 13.29226 | 145.47716 | 11180 ft | 278 kts | 295° |
| 2026-04-16 15:36 | 13.30215 | 145.46014 | 10882 ft | 277 kts | 295° |
| 2026-04-16 15:36 | 13.31196 | 145.44324 | 10602 ft | 275 kts | 295° |
| 2026-04-16 15:36 | 13.32172 | 145.42642 | 10315 ft | 273 kts | 295° |
| 2026-04-16 15:37 | 13.33141 | 145.40974 | 10100 ft | 269 kts | 295° |
| 2026-04-16 15:37 | 13.34087 | 145.39347 | 9921 ft | 264 kts | 295° |
| 2026-04-16 15:37 | 13.35025 | 145.37731 | 9651 ft | 263 kts | 295° |
| 2026-04-16 15:37 | 13.35955 | 145.36125 | 9363 ft | 262 kts | 294° |
| 2026-04-16 15:38 | 13.36884 | 145.34522 | 9081 ft | 260 kts | 294° |
| 2026-04-16 15:38 | 13.37807 | 145.32931 | 8803 ft | 258 kts | 294° |
| 2026-04-16 15:38 | 13.38724 | 145.31349 | 8528 ft | 257 kts | 294° |
| 2026-04-16 15:38 | 13.39634 | 145.29778 | 8265 ft | 255 kts | 295° |
| 2026-04-16 15:39 | 13.40539 | 145.28216 | 7999 ft | 254 kts | 295° |
| 2026-04-16 15:39 | 13.41440 | 145.26659 | 7737 ft | 253 kts | 294° |
| 2026-04-16 15:39 | 13.42337 | 145.25111 | 7473 ft | 251 kts | 295° |
| 2026-04-16 15:39 | 13.43227 | 145.23574 | 7215 ft | 249 kts | 295° |
| 2026-04-16 15:40 | 13.44111 | 145.22048 | 6970 ft | 248 kts | 295° |
| 2026-04-16 15:40 | 13.44989 | 145.20532 | 6722 ft | 246 kts | 295° |
| 2026-04-16 15:40 | 13.45860 | 145.19027 | 6478 ft | 244 kts | 295° |
| 2026-04-16 15:40 | 13.46726 | 145.17531 | 6241 ft | 243 kts | 295° |
| 2026-04-16 15:41 | 13.47586 | 145.16044 | 5997 ft | 242 kts | 295° |
| 2026-04-16 15:41 | 13.48443 | 145.14561 | 5742 ft | 241 kts | 295° |
| 2026-04-16 15:41 | 13.49296 | 145.13087 | 5501 ft | 239 kts | 295° |
| 2026-04-16 15:41 | 13.50143 | 145.11623 | 5259 ft | 237 kts | 295° |
| 2026-04-16 15:42 | 13.50980 | 145.10176 | 5042 ft | 234 kts | 295° |
| 2026-04-16 15:42 | 13.51808 | 145.08743 | 4808 ft | 232 kts | 294° |
| 2026-04-16 15:42 | 13.52630 | 145.07320 | 4591 ft | 231 kts | 294° |
| 2026-04-16 15:42 | 13.53443 | 145.05914 | 4452 ft | 225 kts | 294° |
| 2026-04-16 15:43 | 13.54234 | 145.04549 | 4344 ft | 219 kts | 294° |
| 2026-04-16 15:43 | 13.54991 | 145.03241 | 4256 ft | 213 kts | 294° |
| 2026-04-16 15:43 | 13.55735 | 145.01956 | 4164 ft | 205 kts | 294° |
| 2026-04-16 15:43 | 13.56451 | 145.00717 | 4076 ft | 198 kts | 293° |
| 2026-04-16 15:44 | 13.56839 | 144.99437 | 3979 ft | 184 kts | 266° |
| 2026-04-16 15:44 | 13.56693 | 144.98132 | 3885 ft | 187 kts | 251° |
| 2026-04-16 15:44 | 13.56142 | 144.96907 | 3703 ft | 189 kts | 246° |
| 2026-04-16 15:44 | 13.55579 | 144.95679 | 3487 ft | 190 kts | 246° |
| 2026-04-16 15:45 | 13.55029 | 144.94464 | 3298 ft | 186 kts | 246° |
| 2026-04-16 15:45 | 13.54485 | 144.93272 | 3056 ft | 182 kts | 246° |
| 2026-04-16 15:45 | 13.53948 | 144.92101 | 2803 ft | 178 kts | 246° |
| 2026-04-16 15:45 | 13.53440 | 144.90988 | 2591 ft | 167 kts | 246° |
| 2026-04-16 15:46 | 13.52959 | 144.89942 | 2371 ft | 156 kts | 246° |
| 2026-04-16 15:46 | 13.52513 | 144.88968 | 2165 ft | 145 kts | 246° |
| 2026-04-16 15:46 | 13.52104 | 144.88076 | 2003 ft | 129 kts | 246° |
| 2026-04-16 15:46 | 13.51739 | 144.87280 | 1714 ft | 120 kts | 246° |
| 2026-04-16 15:47 | 13.51504 | 144.86766 | 1620 ft | 121 kts | 245° |
| 2026-04-16 15:47 | 13.51147 | 144.85984 | 1452 ft | 120 kts | 245° |
| 2026-04-16 15:47 | 13.50793 | 144.85214 | 1296 ft | 119 kts | 245° |
| 2026-04-16 15:47 | 13.50435 | 144.84432 | 1130 ft | 123 kts | 242° |
| 2026-04-16 15:48 | 13.50062 | 144.83638 | 948 ft | 125 kts | 245° |
| 2026-04-16 15:48 | 13.49677 | 144.82795 | 707 ft | 134 kts | 245° |
| 2026-04-16 15:48 | 13.49280 | 144.81904 | 580 ft | 143 kts | 245° |
| 2026-04-16 15:48 | 13.48872 | 144.81003 | 408 ft | 132 kts | 242° |
| 2026-04-16 15:49 | 13.48501 | 144.80189 | 286 ft | 116 kts | 244° |
| 2026-04-16 15:49 | 13.48216 | 144.79573 | 261 ft | 74 kts | 245° |
| 2026-04-16 15:49 | 13.48064 | 144.79236 | 255 ft | 42 kts | 245° |
| 2026-04-16 15:49 | 13.47945 | 144.78977 | 248 ft | 39 kts | 245° |
| 2026-04-16 15:50 | 13.47836 | 144.78736 | 239 ft | 37 kts | 245° |
| 2026-04-16 15:50 | 13.47749 | 144.78542 | 236 ft | 20 kts | 251° |
| 2026-04-16 15:50 | 13.47825 | 144.78448 | 237 ft | 20 kts | 337° |
| 2026-04-16 15:50 | 13.47946 | 144.78390 | 240 ft | 19 kts | 334° |
| 2026-04-16 15:51 | 13.48021 | 144.78413 | 241 ft | 13 kts | 65° |
| 2026-04-16 15:51 | 13.48065 | 144.78510 | 245 ft | 17 kts | 65° |
| 2026-04-16 15:51 | 13.48118 | 144.78626 | 250 ft | 19 kts | 65° |